createdAt,value
2017-03-25T00:06:47.523Z,1025.15
2017-03-25T00:16:47.730Z,1025.08
2017-03-25T00:26:47.552Z,1025.06
2017-03-25T00:36:47.506Z,1025.11
2017-03-25T00:46:47.464Z,1025.03
2017-03-25T00:56:47.543Z,1025.07
2017-03-25T01:06:47.531Z,1024.91
2017-03-25T01:16:48.537Z,1024.88
2017-03-25T01:26:47.609Z,1024.83
2017-03-25T01:36:47.469Z,1024.79
2017-03-25T01:46:47.642Z,1024.69
2017-03-25T01:56:47.508Z,1024.65
2017-03-25T02:06:47.525Z,1024.55
2017-03-25T02:16:47.590Z,1024.56
2017-03-25T02:26:47.454Z,1024.47
2017-03-25T02:36:47.471Z,1024.34
2017-03-25T02:46:47.423Z,1024.35
2017-03-25T02:56:47.521Z,1024.3
2017-03-25T03:06:47.509Z,1024.27
2017-03-25T03:16:47.456Z,1024.22
2017-03-25T03:26:47.498Z,1024.25
2017-03-25T03:36:47.429Z,1024.18
2017-03-25T03:46:47.488Z,1024.2
2017-03-25T03:56:47.451Z,1024.16
2017-03-25T04:06:47.405Z,1024.11
2017-03-25T04:16:47.476Z,1024.1
2017-03-25T04:26:47.446Z,1024.05
2017-03-25T04:36:47.401Z,1024.04
2017-03-25T04:46:47.458Z,1024.04
2017-03-25T04:56:47.413Z,1024.05
2017-03-25T05:06:47.379Z,1024.01
2017-03-25T05:16:47.444Z,1024.01
2017-03-25T05:26:47.401Z,1024.06
2017-03-25T05:36:47.475Z,1024.12
2017-03-25T05:46:47.426Z,1024.08
2017-03-25T05:56:47.391Z,1024.11
2017-03-25T06:06:47.458Z,1024.11
2017-03-25T06:16:47.410Z,1024.13
2017-03-25T06:26:47.420Z,1024.19
2017-03-25T06:36:47.433Z,1024.23
2017-03-25T06:46:47.391Z,1024.22
2017-03-25T06:56:47.458Z,1024.35
2017-03-25T07:06:47.450Z,1024.44
2017-03-25T07:16:47.384Z,1024.52
2017-03-25T07:26:47.383Z,1024.53
2017-03-25T07:36:47.402Z,1024.47
2017-03-25T07:46:47.364Z,1024.42
2017-03-25T07:56:47.425Z,1024.44
2017-03-25T08:06:47.383Z,1024.55
2017-03-25T08:16:47.342Z,1024.48
2017-03-25T08:26:47.317Z,1024.52
2017-03-25T08:36:47.380Z,1024.47
2017-03-25T08:46:47.329Z,1024.48
2017-03-25T08:56:47.399Z,1024.47
2017-03-25T09:06:47.359Z,1024.5
2017-03-25T09:16:47.417Z,1024.42
2017-03-25T09:26:47.378Z,1024.36
2017-03-25T09:36:49.432Z,1024.27
2017-03-25T09:46:47.428Z,1024.19
2017-03-25T09:56:47.374Z,1024.04
2017-03-25T10:06:47.428Z,1024.04
2017-03-25T10:16:47.389Z,1023.99
2017-03-25T10:26:47.354Z,1023.81
2017-03-25T10:36:47.407Z,1023.68
2017-03-25T10:46:47.370Z,1023.5
2017-03-25T10:56:47.435Z,1023.37
2017-03-25T11:06:47.326Z,1023.18
2017-03-25T11:16:47.312Z,1023.03
2017-03-25T11:26:47.309Z,1022.85
2017-03-25T11:36:47.400Z,1022.76
2017-03-25T11:46:47.349Z,1022.51
2017-03-25T11:56:47.400Z,1022.52
2017-03-25T12:06:47.376Z,1022.5
2017-03-25T12:16:47.442Z,1022.18
2017-03-25T12:26:47.319Z,1022.16
2017-03-25T12:36:47.347Z,1021.91
2017-03-25T12:46:47.418Z,1021.89
2017-03-25T12:56:47.370Z,1021.71
2017-03-25T13:06:47.421Z,1021.63
2017-03-25T13:16:47.357Z,1021.48
2017-03-25T13:26:47.426Z,1021.23
2017-03-25T13:36:47.389Z,1021.2
2017-03-25T13:46:47.320Z,1021.09
2017-03-25T13:56:47.311Z,1020.91
2017-03-25T14:06:47.369Z,1020.79
2017-03-25T14:16:47.325Z,1020.6
2017-03-25T14:26:47.328Z,1020.53
2017-03-25T14:36:47.317Z,1020.35
2017-03-25T14:46:47.318Z,1020.35
2017-03-25T14:56:47.312Z,1020.12
2017-03-25T15:06:47.311Z,1019.88
2017-03-25T15:16:47.324Z,1019.78
2017-03-25T15:26:47.354Z,1019.65
2017-03-25T15:36:47.306Z,1019.43
2017-03-25T15:46:47.318Z,1019.35
2017-03-25T15:56:47.326Z,1019.2
2017-03-25T16:06:47.312Z,1019.15
2017-03-25T16:16:47.336Z,1018.9
2017-03-25T16:26:47.325Z,1018.84
2017-03-25T16:36:47.390Z,1018.92
2017-03-25T16:46:47.317Z,1018.96
2017-03-25T16:56:47.317Z,1018.88
2017-03-25T17:06:47.322Z,1018.95
2017-03-25T17:16:47.312Z,1018.89
2017-03-25T17:26:47.326Z,1018.89
2017-03-25T17:36:47.313Z,1018.82
2017-03-25T17:46:47.332Z,1018.88
2017-03-25T17:56:47.306Z,1018.81
2017-03-25T18:06:47.315Z,1018.92
2017-03-25T18:16:47.315Z,1018.99
2017-03-25T18:26:47.318Z,1019.11
2017-03-25T18:36:47.312Z,1019.08
2017-03-25T18:46:47.308Z,1019.14
2017-03-25T18:56:47.366Z,1019.11
2017-03-25T19:06:47.307Z,1019.08
2017-03-25T19:16:47.317Z,1019.16
2017-03-25T19:26:47.294Z,1019.12
2017-03-25T19:36:47.293Z,1019.13
2017-03-25T19:46:47.308Z,1019.29
2017-03-25T19:56:47.290Z,1019.23
2017-03-25T20:06:47.286Z,1019.27
2017-03-25T20:16:47.301Z,1019.19
2017-03-25T20:26:47.302Z,1019.12
2017-03-25T20:36:47.291Z,1019.29
2017-03-25T20:46:47.291Z,1019.29
2017-03-25T20:56:47.286Z,1019.25
2017-03-25T21:06:47.288Z,1019.3
2017-03-25T21:16:47.292Z,1019.31
2017-03-25T21:26:47.278Z,1019.47
2017-03-25T21:36:47.288Z,1019.31
2017-03-25T21:46:47.276Z,1019.18
2017-03-25T21:56:47.286Z,1019.11
2017-03-25T22:06:47.277Z,1019.16
2017-03-25T22:16:47.280Z,1019.19
2017-03-25T22:26:47.271Z,1019
2017-03-25T22:36:47.280Z,1018.85
2017-03-25T22:46:47.274Z,1018.98
2017-03-25T22:56:47.357Z,1019.01
2017-03-25T23:06:47.284Z,1018.85
2017-03-25T23:16:47.348Z,1018.78
2017-03-25T23:26:47.304Z,1018.75
2017-03-25T23:36:47.388Z,1018.55
2017-03-25T23:46:47.334Z,1018.55
2017-03-25T23:56:47.289Z,1018.62
